Time;durP1;ratioP1;P1;durP2;ratioP2;P2;SDS_P1;SDS_P2;PMS_P1;PMS_P2;Temp;Humidity;BMP_temperature;BMP_pressure;BME280_temperature;BME280_humidity;BME280_pressure;Samples;Min_cycle;Max_cycle;Signal;HPM_P1;HPM_P2
2023/06/30 00:00:12;;;;;;;4.88;3.40;;;;;;;21.23;55.09;99443.53;5054810;28;20025;-76
2023/06/30 00:02:39;;;;;;;3.50;3.20;;;;;;;21.18;55.11;99446.94;5054539;28;20453;-76
2023/06/30 00:05:05;;;;;;;5.18;3.40;;;;;;;21.25;55.07;99470.94;5054615;28;20417;-76
2023/06/30 00:07:30;;;;;;;3.80;3.50;;;;;;;21.18;55.20;99446.94;5054449;28;20040;-77
2023/06/30 00:09:56;;;;;;;3.90;3.50;;;;;;;20.97;55.42;99422.75;5054418;28;20021;-76
2023/06/30 00:12:21;;;;;;;4.72;4.03;;;;;;;21.24;55.29;99482.75;5054174;28;20571;-77
2023/06/30 00:14:47;;;;;;;4.22;3.90;;;;;;;21.44;55.22;99511.72;5054320;28;20033;-77
2023/06/30 00:17:12;;;;;;;4.05;3.65;;;;;;;20.93;55.40;99450.09;5052825;28;20013;-76
2023/06/30 00:19:38;;;;;;;4.40;3.67;;;;;;;20.94;55.44;99457.09;5054146;28;20029;-77
2023/06/30 00:22:03;;;;;;;3.70;3.38;;;;;;;20.85;55.38;99455.06;5054134;28;20051;-76
2023/06/30 00:24:29;;;;;;;4.18;3.70;;;;;;;20.83;55.32;99444.59;5054179;28;20017;-76
2023/06/30 00:26:54;;;;;;;4.18;3.83;;;;;;;21.13;55.34;99481.75;5054388;28;20036;-76
2023/06/30 00:29:20;;;;;;;4.18;3.78;;;;;;;21.04;55.38;99487.81;5054411;28;20029;-76
2023/06/30 00:31:45;;;;;;;3.72;3.42;;;;;;;20.74;55.31;99442.53;5054566;28;20414;-76
2023/06/30 00:34:10;;;;;;;5.38;3.53;;;;;;;21.19;55.32;99520.22;5054452;28;20025;-76
2023/06/30 00:36:36;;;;;;;3.80;3.40;;;;;;;21.17;55.40;99519.66;5054382;28;20017;-76
2023/06/30 00:39:01;;;;;;;4.03;3.72;;;;;;;20.79;55.22;99466.75;5052609;28;20104;-77
2023/06/30 00:41:27;;;;;;;4.03;3.70;;;;;;;20.81;55.32;99478.09;5053888;28;20074;-76
2023/06/30 00:43:52;;;;;;;4.00;3.60;;;;;;;20.78;55.58;99487.41;5054194;28;20044;-76
2023/06/30 00:46:18;;;;;;;5.00;3.55;;;;;;;20.80;55.53;99504.09;5054153;28;20025;-77
2023/06/30 00:48:44;;;;;;;4.05;3.50;;;;;;;21.02;55.33;99522.16;5053987;28;20029;-76
2023/06/30 00:51:11;;;;;;;3.70;3.40;;;;;;;20.97;55.27;99519.38;5053770;28;20104;-76
2023/06/30 00:53:37;;;;;;;3.45;3.15;;;;;;;20.90;55.48;99530.28;5053563;28;20096;-76
2023/06/30 00:56:03;;;;;;;4.88;3.70;;;;;;;20.87;55.33;99528.91;5053822;28;20597;-76
2023/06/30 00:58:29;;;;;;;4.45;3.50;;;;;;;20.52;55.29;99482.72;5053917;28;20120;-76
2023/06/30 01:01:21;;;;;;;4.32;3.35;;;;;;;20.79;55.10;99523.13;5053589;28;20107;-76
2023/06/30 01:03:51;;;;;;;4.70;3.60;;;;;;;20.51;55.26;99495.31;5045447;28;20464;-76
2023/06/30 01:06:32;;;;;;;5.18;3.20;;;;;;;20.67;55.17;99531.25;5051951;28;20017;-76
2023/06/30 01:09:05;;;;;;;4.20;3.58;;;;;;;20.67;55.04;99530.44;5053671;28;20101;-76
2023/06/30 01:11:33;;;;;;;4.00;3.60;;;;;;;20.63;55.03;99525.56;5053535;28;20025;-76
2023/06/30 01:14:00;;;;;;;4.15;3.47;;;;;;;20.58;55.34;99528.16;5053295;28;20017;-77
2023/06/30 01:16:28;;;;;;;4.30;3.10;;;;;;;20.35;55.17;99492.59;5053134;28;20100;-76
2023/06/30 01:18:55;;;;;;;4.82;3.05;;;;;;;20.37;55.26;99490.50;5053035;28;20509;-76
2023/06/30 01:21:22;;;;;;;3.63;3.00;;;;;;;19.99;55.20;99427.63;5051700;28;20562;-77
2023/06/30 01:24:04;;;;;;;5.05;3.10;;;;;;;20.28;55.41;99476.69;5052887;28;20040;-77
2023/06/30 01:26:34;;;;;;;4.05;3.70;;;;;;;20.23;55.01;99481.94;5051596;28;20107;-76
2023/06/30 01:29:03;;;;;;;4.07;3.67;;;;;;;20.03;55.37;99441.38;5051377;28;20410;-76
2023/06/30 01:31:31;;;;;;;4.18;3.30;;;;;;;20.35;55.26;99495.28;5052793;28;20107;-77
2023/06/30 01:34:01;;;;;;;4.72;3.60;;;;;;;20.34;55.29;99496.34;5052654;28;20146;-77
2023/06/30 01:36:26;;;;;;;5.07;3.88;;;;;;;20.17;55.17;99497.13;5052647;28;20025;-76
2023/06/30 01:38:52;;;;;;;3.60;3.05;;;;;;;20.39;55.37;99536.66;5052619;28;20032;-76
2023/06/30 01:41:18;;;;;;;5.30;3.92;;;;;;;20.16;55.27;99495.50;5052497;28;20490;-77
2023/06/30 01:43:44;;;;;;;5.32;3.80;;;;;;;20.06;55.69;99484.59;5052611;28;20024;-76
2023/06/30 01:46:10;;;;;;;4.97;3.13;;;;;;;20.02;55.84;99477.25;5051226;28;20047;-76
2023/06/30 01:48:36;;;;;;;3.75;3.03;;;;;;;20.09;55.66;99496.72;5052590;28;20027;-76
2023/06/30 01:51:01;;;;;;;3.22;2.78;;;;;;;20.12;55.71;99494.38;5052187;28;20057;-76
2023/06/30 01:53:27;;;;;;;3.80;3.08;;;;;;;19.92;55.58;99456.47;5050727;28;20052;-76
2023/06/30 01:55:54;;;;;;;5.53;3.08;;;;;;;19.75;55.52;99435.00;5052110;28;20053;-76
2023/06/30 01:58:20;;;;;;;3.92;3.35;;;;;;;20.20;55.57;99509.25;5052077;28;20049;-77
2023/06/30 02:00:46;;;;;;;5.20;3.30;;;;;;;20.12;55.85;99518.50;5050970;28;20391;-76
2023/06/30 02:03:11;;;;;;;5.45;3.90;;;;;;;19.89;55.87;99478.38;5052312;28;20017;-77
2023/06/30 02:05:37;;;;;;;6.85;3.35;;;;;;;19.64;55.92;99468.00;5052184;28;20481;-76
2023/06/30 02:08:02;;;;;;;5.65;3.60;;;;;;;19.81;56.11;99484.94;5052159;28;20553;-76
2023/06/30 02:10:28;;;;;;;7.20;3.30;;;;;;;19.63;55.72;99461.00;5052086;28;20029;-77
2023/06/30 02:12:53;;;;;;;4.97;3.40;;;;;;;19.58;55.85;99456.38;5052172;28;20021;-75
2023/06/30 02:15:18;;;;;;;6.13;3.50;;;;;;;19.96;55.89;99519.22;5052056;28;20040;-78
2023/06/30 02:17:44;;;;;;;7.20;3.60;;;;;;;19.93;55.86;99515.16;5050123;28;20571;-76
2023/06/30 02:20:10;;;;;;;3.78;3.30;;;;;;;19.64;55.87;99474.16;5050702;28;20508;-77
2023/06/30 02:22:37;;;;;;;5.10;3.25;;;;;;;19.84;55.80;99513.94;5052127;28;20017;-76
2023/06/30 02:25:03;;;;;;;3.97;3.40;;;;;;;19.32;56.03;99433.63;5050658;28;20090;-76
2023/06/30 02:27:28;;;;;;;9.13;3.38;;;;;;;19.88;56.03;99515.06;5051776;28;20513;-78
2023/06/30 02:29:54;;;;;;;4.50;3.35;;;;;;;19.40;55.70;99435.09;5051433;28;20128;-76
2023/06/30 02:32:19;;;;;;;4.63;3.55;;;;;;;19.73;55.83;99497.91;5051471;28;20024;-77
2023/06/30 02:34:45;;;;;;;3.85;3.30;;;;;;;19.55;55.88;99474.78;5051703;28;20029;-75
2023/06/30 02:37:10;;;;;;;7.63;4.22;;;;;;;19.46;55.79;99455.56;5051400;28;20020;-77
2023/06/30 02:39:36;;;;;;;5.93;3.58;;;;;;;19.37;55.77;99446.28;5051332;28;20100;-78
2023/06/30 02:42:02;;;;;;;5.38;4.05;;;;;;;19.46;55.71;99452.06;5051488;28;20104;-77
2023/06/30 02:44:28;;;;;;;4.53;3.05;;;;;;;19.84;55.68;99527.31;5051718;28;20021;-78
2023/06/30 02:46:53;;;;;;;3.95;3.42;;;;;;;19.35;55.88;99451.88;5051578;28;20104;-77
2023/06/30 02:49:19;;;;;;;4.47;3.20;;;;;;;19.87;55.67;99526.84;5050375;28;20044;-77
2023/06/30 02:51:44;;;;;;;4.95;3.67;;;;;;;19.48;55.48;99480.25;5050374;28;20052;-77
2023/06/30 02:54:10;;;;;;;3.95;3.50;;;;;;;19.43;55.32;99457.91;5051468;28;20021;-75
2023/06/30 02:56:35;;;;;;;4.63;3.50;;;;;;;19.24;55.13;99415.22;5051432;28;20025;-75
2023/06/30 02:59:19;;;;;;;4.30;3.15;;;;;;;19.98;55.26;99531.34;5050996;28;20506;-77
2023/06/30 03:01:45;;;;;;;5.07;3.83;;;;;;;19.45;55.38;99453.13;5051236;28;20505;-77
2023/06/30 03:04:10;;;;;;;6.00;3.50;;;;;;;19.83;55.31;99517.66;5049960;28;20013;-75
2023/06/30 03:06:35;;;;;;;23.77;4.13;;;;;;;19.74;55.45;99500.34;5051254;28;20036;-77
2023/06/30 03:09:01;;;;;;;4.60;3.38;;;;;;;19.47;55.40;99465.22;5051204;28;20017;-77
2023/06/30 03:11:27;;;;;;;6.43;3.97;;;;;;;19.91;55.41;99530.66;5051246;28;20486;-77
2023/06/30 03:13:52;;;;;;;4.97;3.53;;;;;;;19.43;55.41;99463.25;5051015;28;20512;-76
2023/06/30 03:16:18;;;;;;;6.72;3.60;;;;;;;19.82;55.36;99528.63;5050026;28;20021;-77
2023/06/30 03:18:44;;;;;;;4.88;3.63;;;;;;;19.85;55.50;99531.63;5051222;28;20413;-76
2023/06/30 03:21:09;;;;;;;5.55;4.03;;;;;;;19.63;55.35;99490.47;5051284;28;20029;-77
2023/06/30 03:23:53;;;;;;;3.30;3.00;;;;;;;19.84;55.48;99547.94;5051561;28;20021;-76
2023/06/30 03:26:18;;;;;;;5.40;3.78;;;;;;;19.34;55.42;99462.81;5051576;28;20025;-76
2023/06/30 03:28:44;;;;;;;4.35;3.30;;;;;;;19.41;55.48;99481.44;5054135;28;20027;-76
2023/06/30 03:31:09;;;;;;;3.65;3.35;;;;;;;18.70;55.60;99387.06;5055406;28;20482;-77
2023/06/30 03:33:35;;;;;;;6.20;3.60;;;;;;;19.77;55.40;99541.91;5055374;28;20020;-77
2023/06/30 03:36:00;;;;;;;5.95;3.22;;;;;;;19.31;55.69;99490.03;5055241;28;20025;-77
2023/06/30 03:38:26;;;;;;;4.80;3.08;;;;;;;19.17;55.60;99446.66;5055400;28;20510;-76
2023/06/30 03:40:51;;;;;;;7.07;3.42;;;;;;;18.80;55.25;99375.78;5055143;28;20048;-77
2023/06/30 03:43:21;;;;;;;5.93;3.75;;;;;;;19.64;55.38;99500.94;5055026;28;20051;-76
2023/06/30 03:45:46;;;;;;;7.30;3.55;;;;;;;19.51;55.26;99481.63;5053768;28;20044;-77
2023/06/30 03:48:11;;;;;;;4.28;3.80;;;;;;;19.93;55.20;99535.78;5054913;28;20486;-76
2023/06/30 03:50:41;;;;;;;3.80;3.42;;;;;;;19.72;55.18;99513.16;5054999;28;20521;-77
2023/06/30 03:53:07;;;;;;;6.07;3.38;;;;;;;19.30;55.08;99435.69;5054855;28;20021;-76
2023/06/30 03:55:32;;;;;;;5.40;3.67;;;;;;;19.93;55.10;99535.78;5055146;28;20071;-77
2023/06/30 03:57:57;;;;;;;7.15;3.17;;;;;;;19.14;55.06;99401.63;5054560;28;20136;-76
2023/06/30 04:00:23;;;;;;;9.27;4.20;;;;;;;19.49;55.14;99465.00;5054403;28;20024;-75
2023/06/30 04:02:48;;;;;;;6.18;3.88;;;;;;;19.43;55.17;99452.56;5054809;28;20092;-78
2023/06/30 04:05:13;;;;;;;5.68;3.78;;;;;;;19.57;55.39;99483.41;5054556;28;20033;-76
2023/06/30 04:07:40;;;;;;;9.05;4.47;;;;;;;19.97;55.56;99532.41;5054369;28;20053;-78
2023/06/30 04:10:06;;;;;;;4.22;3.45;;;;;;;20.02;55.23;99537.03;5054515;28;20032;-75
2023/06/30 04:12:31;;;;;;;8.23;4.30;;;;;;;19.72;55.18;99481.00;5054251;28;20025;-77
2023/06/30 04:14:57;;;;;;;6.88;4.43;;;;;;;19.68;54.98;99458.44;5054185;28;20214;-75
2023/06/30 04:17:22;;;;;;;5.63;3.70;;;;;;;19.79;55.14;99478.19;5054212;28;20016;-75
2023/06/30 04:19:48;;;;;;;9.20;4.00;;;;;;;20.11;54.75;99526.78;5054215;28;20048;-77
2023/06/30 04:22:13;;;;;;;7.47;4.15;;;;;;;19.69;54.70;99465.41;5054243;28;20029;-77
2023/06/30 04:24:39;;;;;;;6.88;3.90;;;;;;;19.88;54.90;99482.91;5052830;28;20053;-76
2023/06/30 04:27:04;;;;;;;7.68;4.18;;;;;;;20.04;54.94;99508.13;5054201;28;20103;-77
2023/06/30 04:29:30;;;;;;;8.60;4.05;;;;;;;19.86;54.90;99468.13;5054822;28;20028;-77
2023/06/30 04:31:55;;;;;;;8.00;4.45;;;;;;;19.64;54.53;99417.91;5064697;28;20069;-77
2023/06/30 04:34:21;;;;;;;7.70;4.35;;;;;;;20.30;54.79;99531.69;5061258;28;20033;-77
2023/06/30 04:36:49;;;;;;;6.85;4.20;;;;;;;19.95;54.59;99464.81;5053904;28;20478;-77
2023/06/30 04:39:15;;;;;;;9.10;4.82;;;;;;;20.36;54.81;99521.84;5053314;28;20025;-74
2023/06/30 04:41:40;;;;;;;10.60;4.25;;;;;;;19.92;54.74;99453.78;5054002;28;20031;-76
2023/06/30 04:44:05;;;;;;;7.80;4.75;;;;;;;20.38;54.88;99513.56;5053779;28;20020;-75
2023/06/30 04:46:31;;;;;;;12.32;5.30;;;;;;;20.41;54.93;99508.56;5053555;28;20029;-78
2023/06/30 04:48:56;;;;;;;6.63;4.40;;;;;;;20.60;54.71;99530.59;5053690;28;20108;-76
2023/06/30 04:51:21;;;;;;;5.82;4.80;;;;;;;20.45;54.64;99487.44;5053539;28;20036;-77
2023/06/30 04:53:47;;;;;;;8.23;4.25;;;;;;;20.89;54.45;99548.25;5053277;28;20555;-77
2023/06/30 04:56:12;;;;;;;6.97;4.30;;;;;;;20.92;54.61;99538.91;5052047;28;20032;-75
2023/06/30 04:58:38;;;;;;;6.38;4.57;;;;;;;20.79;54.43;99504.34;5053343;28;20053;-77
2023/06/30 05:01:04;;;;;;;9.20;4.45;;;;;;;20.38;54.40;99433.13;5053422;28;20039;-75
2023/06/30 05:03:30;;;;;;;7.90;4.85;;;;;;;21.17;54.46;99541.97;5053203;28;20044;-78
2023/06/30 05:05:57;;;;;;;5.38;4.80;;;;;;;20.69;54.47;99462.06;5053043;28;20497;-78
2023/06/30 05:08:23;;;;;;;7.88;5.03;;;;;;;21.01;54.32;99493.69;5053146;28;20039;-77
2023/06/30 05:10:48;;;;;;;8.25;5.18;;;;;;;20.98;54.29;99481.56;5051763;28;20060;-78
2023/06/30 05:13:14;;;;;;;9.88;5.00;;;;;;;20.90;54.23;99466.69;5052786;28;20021;-77
2023/06/30 05:15:39;;;;;;;7.28;5.70;;;;;;;20.96;54.29;99469.44;5052728;28;20480;-78
2023/06/30 05:18:05;;;;;;;5.75;5.05;;;;;;;21.59;54.10;99544.19;5052660;28;20029;-75
2023/06/30 05:20:33;;;;;;;7.40;5.10;;;;;;;21.53;53.76;99545.97;5052768;28;20060;-78
2023/06/30 05:22:59;;;;;;;7.25;5.55;;;;;;;21.78;53.59;99555.44;5052852;28;20017;-77
2023/06/30 05:25:24;;;;;;;5.53;5.03;;;;;;;21.70;53.10;99526.31;5052887;28;20017;-77
2023/06/30 05:27:49;;;;;;;7.88;4.93;;;;;;;21.89;53.12;99551.81;5051539;28;20025;-78
2023/06/30 05:30:15;;;;;;;6.88;4.97;;;;;;;21.82;53.18;99543.13;5052516;28;20025;-75
2023/06/30 05:32:41;;;;;;;10.15;6.30;;;;;;;21.88;52.78;99520.59;5052796;28;20021;-76
2023/06/30 05:35:06;;;;;;;6.25;5.30;;;;;;;21.56;52.71;99480.22;5052979;28;20486;-76
2023/06/30 05:37:32;;;;;;;9.80;7.05;;;;;;;21.50;52.43;99460.50;5052818;28;20081;-76
2023/06/30 05:39:57;;;;;;;6.10;5.55;;;;;;;21.54;52.16;99466.19;5051349;28;20116;-78
2023/06/30 05:42:22;;;;;;;6.95;4.57;;;;;;;21.71;51.92;99488.44;5054520;28;20028;-76
2023/06/30 05:44:48;;;;;;;4.80;4.13;;;;;;;21.76;51.49;99490.38;5072032;28;20516;-77
2023/06/30 05:47:13;;;;;;;4.90;3.97;;;;;;;21.94;51.43;99524.97;5073667;28;20017;-76
2023/06/30 05:49:39;;;;;;;5.32;3.35;;;;;;;21.94;51.11;99511.53;5073031;28;20448;-77
2023/06/30 05:52:07;;;;;;;6.13;3.90;;;;;;;21.91;50.96;99498.59;5074358;28;20013;-76
2023/06/30 05:54:32;;;;;;;5.90;3.95;;;;;;;21.82;51.02;99479.41;5074265;28;20020;-76
2023/06/30 05:56:58;;;;;;;5.18;4.10;;;;;;;21.89;50.81;99489.97;5071510;28;20032;-76
2023/06/30 05:59:23;;;;;;;6.45;4.38;;;;;;;21.90;50.78;99494.28;5071491;28;20516;-76
2023/06/30 06:01:48;;;;;;;12.98;4.05;;;;;;;22.27;50.90;99540.13;5071888;28;20052;-77
2023/06/30 06:04:14;;;;;;;9.02;4.47;;;;;;;22.32;50.72;99534.81;5080953;28;20016;-76
2023/06/30 06:06:40;;;;;;;8.43;6.38;;;;;;;22.55;50.73;99557.09;5076945;28;20035;-76
2023/06/30 06:09:06;;;;;;;7.70;4.93;;;;;;;22.36;50.84;99521.69;5078520;28;20478;-77
2023/06/30 06:11:31;;;;;;;8.00;6.53;;;;;;;22.17;50.64;99475.47;5070489;28;20032;-77
2023/06/30 06:13:56;;;;;;;5.53;4.55;;;;;;;22.68;50.67;99549.41;5082509;28;20034;-76
2023/06/30 06:16:22;;;;;;;5.93;4.60;;;;;;;22.69;50.43;99545.63;5091956;28;20074;-76
2023/06/30 06:18:48;;;;;;;6.70;4.97;;;;;;;22.52;50.58;99520.72;5085510;28;20520;-77
2023/06/30 06:21:16;;;;;;;6.07;4.43;;;;;;;22.57;50.48;99510.00;5071354;28;20028;-76
2023/06/30 06:23:41;;;;;;;6.50;5.43;;;;;;;22.72;50.49;99539.75;5077657;28;20047;-76
2023/06/30 06:26:07;;;;;;;9.75;7.88;;;;;;;22.44;50.00;99470.09;5071069;28;20488;-76
2023/06/30 06:28:32;;;;;;;8.05;6.22;;;;;;;22.21;50.00;99428.19;5071732;28;20082;-76
2023/06/30 06:30:58;;;;;;;9.13;6.50;;;;;;;22.69;49.90;99489.13;5071350;28;20025;-75
2023/06/30 06:33:23;;;;;;;8.00;5.03;;;;;;;23.12;49.73;99568.91;5070062;28;20112;-76
2023/06/30 06:35:51;;;;;;;5.80;5.20;;;;;;;23.21;49.77;99547.66;5071348;28;20027;-77
2023/06/30 06:38:17;;;;;;;5.80;4.95;;;;;;;23.32;49.63;99546.66;5071198;28;20476;-76
2023/06/30 06:40:46;;;;;;;4.72;4.00;;;;;;;23.39;49.30;99546.41;5069902;28;20028;-76
2023/06/30 06:43:12;;;;;;;4.35;3.92;;;;;;;23.46;48.80;99538.91;5070123;28;20016;-76
2023/06/30 06:45:37;;;;;;;4.50;3.97;;;;;;;23.56;48.38;99546.25;5071425;28;20489;-76
2023/06/30 06:48:16;;;;;;;6.32;4.55;;;;;;;23.65;47.78;99544.69;5071174;28;20103;-76
2023/06/30 06:50:42;;;;;;;4.22;3.50;;;;;;;23.70;47.22;99542.00;5069723;28;20452;-76
2023/06/30 06:53:08;;;;;;;5.05;3.90;;;;;;;23.45;46.97;99492.28;5071048;28;20039;-77
2023/06/30 06:55:33;;;;;;;3.40;3.20;;;;;;;23.57;46.91;99500.19;5070040;28;20032;-76
2023/06/30 06:57:59;;;;;;;3.15;2.85;;;;;;;23.90;46.10;99536.69;5071165;28;20127;-78
2023/06/30 07:00:24;;;;;;;4.40;4.00;;;;;;;23.46;45.80;99449.97;5069779;28;20033;-75
2023/06/30 07:02:50;;;;;;;4.28;3.85;;;;;;;24.03;45.82;99528.09;5070753;28;21041;-77
2023/06/30 07:05:16;;;;;;;7.57;6.00;;;;;;;24.11;45.87;99534.88;5070962;28;20489;-75
2023/06/30 07:07:41;;;;;;;6.85;4.35;;;;;;;23.84;44.95;99497.31;5071065;28;20178;-76
2023/06/30 07:10:07;;;;;;;3.40;3.10;;;;;;;23.93;44.13;99492.22;5071241;28;20038;-75
2023/06/30 07:12:32;;;;;;;3.33;2.92;;;;;;;24.14;44.25;99517.34;5069720;28;20060;-76
2023/06/30 07:14:58;;;;;;;4.00;2.88;;;;;;;23.62;44.35;99437.38;5070896;28;20028;-75
2023/06/30 07:17:23;;;;;;;4.32;3.05;;;;;;;24.02;43.96;99493.31;5070863;28;20058;-76
2023/06/30 07:19:49;;;;;;;3.30;3.03;;;;;;;24.02;43.94;99479.81;5069390;28;20406;-76
2023/06/30 07:22:14;;;;;;;3.92;3.53;;;;;;;24.06;43.68;99462.03;5070845;28;20028;-76
2023/06/30 07:24:39;;;;;;;4.50;2.67;;;;;;;24.06;43.34;99451.25;5070936;28;20078;-76
2023/06/30 07:27:05;;;;;;;4.95;4.55;;;;;;;23.95;42.89;99436.13;5071390;28;20472;-76
2023/06/30 07:29:30;;;;;;;13.50;12.20;;;;;;;24.61;42.45;99531.47;5073982;28;20141;-76
2023/06/30 07:31:56;;;;;;;6.13;5.53;;;;;;;24.20;42.12;99465.81;5071173;28;20024;-76
2023/06/30 07:34:23;;;;;;;7.65;6.55;;;;;;;24.29;41.62;99466.94;5071122;28;20450;-76
2023/06/30 07:36:51;;;;;;;7.57;6.90;;;;;;;24.79;41.33;99530.09;5071506;28;20039;-76
2023/06/30 07:39:18;;;;;;;6.80;5.93;;;;;;;24.85;41.17;99528.19;5070732;28;20390;-75
2023/06/30 07:41:43;;;;;;;5.47;4.78;;;;;;;24.83;41.60;99512.28;5070716;28;20024;-76
2023/06/30 07:44:11;;;;;;;3.47;3.17;;;;;;;24.68;41.46;99480.69;5070874;28;20525;-76
2023/06/30 07:46:38;;;;;;;3.80;3.40;;;;;;;25.05;40.90;99528.19;5071356;28;20421;-76
2023/06/30 07:49:04;;;;;;;4.30;3.67;;;;;;;25.08;40.86;99521.44;5071077;28;20052;-76
2023/06/30 07:51:30;;;;;;;3.35;3.05;;;;;;;25.19;40.50;99526.53;5071778;28;20060;-76
2023/06/30 07:53:55;;;;;;;4.78;3.67;;;;;;;25.29;40.47;99523.84;5070647;28;20028;-76
2023/06/30 07:56:21;;;;;;;3.30;2.97;;;;;;;24.83;40.42;99444.75;5070584;28;20025;-76
2023/06/30 07:58:46;;;;;;;4.55;2.97;;;;;;;25.40;40.27;99518.41;5070499;28;20106;-75
2023/06/30 08:01:12;;;;;;;3.40;3.10;;;;;;;25.08;40.69;99467.41;5070717;28;20025;-76
2023/06/30 08:03:37;;;;;;;5.28;3.75;;;;;;;25.07;40.29;99445.00;5070835;28;20067;-76
2023/06/30 08:06:02;;;;;;;3.05;2.60;;;;;;;25.00;40.48;99414.75;5070942;28;20097;-76
2023/06/30 08:08:30;;;;;;;4.20;3.13;;;;;;;25.29;40.12;99444.66;5070509;28;20033;-76
2023/06/30 08:10:55;;;;;;;3.03;2.72;;;;;;;25.62;40.02;99489.91;5070322;28;20526;-76
2023/06/30 08:13:20;;;;;;;4.38;3.97;;;;;;;25.48;40.11;99463.75;5070534;28;20109;-76
2023/06/30 08:15:46;;;;;;;3.28;2.90;;;;;;;25.83;39.44;99530.41;5072943;28;20030;-76
2023/06/30 08:18:11;;;;;;;2.47;2.30;;;;;;;25.37;39.36;99440.56;5074111;28;20039;-76
2023/06/30 08:20:37;;;;;;;4.75;3.15;;;;;;;25.80;39.69;99510.13;5074131;28;20413;-76
2023/06/30 08:23:02;;;;;;;6.82;6.13;;;;;;;25.95;39.69;99515.47;5074123;28;20024;-75
2023/06/30 08:25:28;;;;;;;5.30;4.43;;;;;;;26.02;39.54;99512.47;5074028;28;20174;-76
2023/06/30 08:27:54;;;;;;;7.68;5.63;;;;;;;26.12;39.66;99512.41;5073912;28;20031;-76
2023/06/30 08:30:19;;;;;;;3.75;3.10;;;;;;;25.72;39.07;99436.91;5072543;28;20394;-76
2023/06/30 08:32:44;;;;;;;7.07;4.68;;;;;;;26.23;38.99;99510.44;5073740;28;20055;-76
2023/06/30 08:35:10;;;;;;;5.00;4.55;;;;;;;26.34;38.67;99512.00;5073754;28;20505;-77
2023/06/30 08:37:37;;;;;;;4.00;3.70;;;;;;;26.20;38.65;99481.22;5072341;28;20149;-76
2023/06/30 08:40:04;;;;;;;6.57;5.93;;;;;;;26.03;38.92;99424.00;5072209;28;20025;-76
2023/06/30 08:42:31;;;;;;;16.05;14.45;;;;;;;26.63;38.89;99494.97;5073597;28;20555;-76
2023/06/30 08:44:59;;;;;;;11.77;10.60;;;;;;;26.76;38.71;99495.16;5073575;28;20028;-76
2023/06/30 08:47:28;;;;;;;3.55;3.20;;;;;;;26.81;38.17;99505.94;5074014;28;20035;-75
2023/06/30 08:49:54;;;;;;;7.25;3.28;;;;;;;26.90;38.31;99489.88;5073519;28;20029;-76
2023/06/30 08:52:21;;;;;;;4.70;4.20;;;;;;;27.05;38.56;99488.94;5072262;28;20512;-76
2023/06/30 08:54:46;;;;;;;5.80;5.25;;;;;;;26.77;37.96;99437.19;5069357;28;20032;-76
2023/06/30 08:57:15;;;;;;;5.00;3.42;;;;;;;26.98;37.53;99467.59;5073318;28;20020;-77
2023/06/30 08:59:42;;;;;;;3.83;3.22;;;;;;;26.88;36.72;99435.97;5072238;28;20028;-76
2023/06/30 09:02:08;;;;;;;3.58;3.25;;;;;;;27.42;36.61;99499.06;5085018;28;20039;-75
2023/06/30 09:04:36;;;;;;;3.80;3.50;;;;;;;27.48;36.56;99489.78;5090900;28;20024;-77
2023/06/30 09:07:06;;;;;;;4.30;3.90;;;;;;;27.05;36.51;99404.94;5071581;28;20457;-76
2023/06/30 09:09:37;;;;;;;4.32;3.30;;;;;;;27.38;35.83;99465.50;5072793;28;20032;-74
2023/06/30 09:12:03;;;;;;;3.78;3.42;;;;;;;27.26;36.41;99424.44;5072825;28;20035;-76
2023/06/30 09:14:33;;;;;;;4.22;3.42;;;;;;;27.82;36.33;99489.66;5075525;28;20111;-76
2023/06/30 09:17:00;;;;;;;3.22;2.95;;;;;;;27.60;35.67;99410.72;5068484;28;20032;-76
2023/06/30 09:19:25;;;;;;;7.18;3.08;;;;;;;27.94;35.75;99449.31;5074627;28;20085;-74
2023/06/30 09:21:52;;;;;;;5.40;3.47;;;;;;;28.37;35.82;99479.91;5085247;28;20024;-74
2023/06/30 09:24:18;;;;;;;5.35;3.55;;;;;;;28.04;35.58;99429.34;5072477;28;20020;-77
2023/06/30 09:26:44;;;;;;;4.65;4.20;;;;;;;28.05;35.42;99472.47;5071973;28;20032;-76
2023/06/30 09:29:12;;;;;;;5.10;4.70;;;;;;;27.81;36.04;99471.75;5084771;28;20113;-76
2023/06/30 09:31:38;;;;;;;3.72;3.38;;;;;;;27.86;35.86;99455.41;5081479;28;20033;-76
2023/06/30 09:34:13;;;;;;;4.15;3.85;;;;;;;28.09;34.95;99432.78;5071679;28;20028;-76
2023/06/30 09:39:34;;;;;;;3.22;3.00;;;;;;;28.83;33.96;99445.69;5063590;28;20421;-74
2023/06/30 09:41:59;;;;;;;4.07;3.17;;;;;;;28.92;33.58;99408.59;5075091;28;20032;-77
2023/06/30 09:44:25;;;;;;;3.15;2.85;;;;;;;29.50;32.57;99463.16;5072976;28;20024;-76
2023/06/30 09:46:52;;;;;;;2.67;2.47;;;;;;;29.65;32.02;99453.88;5079853;28;20108;-78
2023/06/30 09:49:32;;;;;;;2.80;2.58;;;;;;;29.79;31.72;99432.91;5075876;28;20025;-77
2023/06/30 09:52:03;;;;;;;3.78;2.95;;;;;;;29.89;31.75;99404.63;5072390;28;20032;-78
2023/06/30 09:54:29;;;;;;;2.65;2.45;;;;;;;30.24;31.26;99417.41;5070679;28;20056;-77
2023/06/30 09:56:59;;;;;;;4.03;2.35;;;;;;;30.56;30.97;99434.59;5071494;28;20087;-75
2023/06/30 09:59:25;;;;;;;3.45;3.25;;;;;;;30.55;30.76;99413.91;5090476;28;20044;-76
2023/06/30 10:01:58;;;;;;;3.65;3.35;;;;;;;30.79;30.08;99427.19;5073368;28;20032;-76
2023/06/30 10:04:25;;;;;;;6.72;4.70;;;;;;;30.26;29.98;99340.81;5073459;28;20107;-74
2023/06/30 10:06:54;;;;;;;3.10;2.83;;;;;;;31.01;28.72;99427.13;5071611;28;20104;-77
2023/06/30 10:09:21;;;;;;;3.75;3.40;;;;;;;31.04;29.44;99420.22;5070173;28;20020;-77
2023/06/30 10:11:51;;;;;;;4.28;3.88;;;;;;;30.67;30.08;99327.75;5071422;28;20139;-78
2023/06/30 10:14:20;;;;;;;3.38;3.08;;;;;;;31.40;29.35;99422.78;5074816;28;20541;-75
2023/06/30 10:16:47;;;;;;;3.13;2.92;;;;;;;31.23;29.29;99391.63;5077309;28;20259;-77
2023/06/30 10:19:14;;;;;;;2.95;2.58;;;;;;;31.05;28.72;99340.81;5074622;28;20024;-76
2023/06/30 10:21:40;;;;;;;2.80;2.60;;;;;;;31.68;28.82;99415.09;5078216;28;20567;-76
2023/06/30 10:24:07;;;;;;;3.75;3.45;;;;;;;31.80;29.14;99394.25;5079918;28;20111;-76
2023/06/30 10:26:34;;;;;;;3.40;2.28;;;;;;;32.07;28.23;99398.56;5070992;28;20413;-75
2023/06/30 10:29:01;;;;;;;4.75;2.97;;;;;;;31.87;28.30;99372.72;5073208;28;20020;-75
2023/06/30 10:31:26;;;;;;;6.88;6.25;;;;;;;31.67;27.90;99298.84;5071380;28;20020;-76
2023/06/30 10:33:52;;;;;;;3.47;2.95;;;;;;;32.36;27.92;99394.34;5079448;28;20416;-76
2023/06/30 10:36:18;;;;;;;2.47;2.28;;;;;;;32.30;27.10;99396.47;5077673;28;20036;-75
2023/06/30 10:38:46;;;;;;;3.67;3.30;;;;;;;32.12;27.52;99351.97;5070832;28;20029;-75
2023/06/30 10:41:19;;;;;;;5.95;5.30;;;;;;;31.80;27.99;99265.13;5071926;28;20034;-74
2023/06/30 10:44:03;;;;;;;3.92;3.55;;;;;;;32.85;27.19;99391.00;5069499;28;20012;-76
2023/06/30 10:46:41;;;;;;;4.78;4.25;;;;;;;33.12;26.57;99387.00;5076443;28;20523;-75
2023/06/30 10:49:06;;;;;;;5.05;4.07;;;;;;;33.02;27.12;99326.38;5051440;28;20017;-76
2023/06/30 10:51:36;;;;;;;4.35;2.60;;;;;;;33.33;26.94;99375.28;5068571;28;20017;-76
2023/06/30 10:54:02;;;;;;;4.53;3.10;;;;;;;33.13;26.23;99338.53;5076985;28;20024;-75
2023/06/30 10:56:28;;;;;;;3.50;3.20;;;;;;;33.24;26.23;99342.47;5070119;28;20040;-76
2023/06/30 10:59:04;;;;;;;2.72;2.13;;;;;;;33.05;25.73;99301.09;5070616;28;20437;-75
2023/06/30 11:01:29;;;;;;;2.90;2.70;;;;;;;33.20;25.87;99308.72;5070755;28;20027;-77
2023/06/30 11:03:58;;;;;;;7.03;6.28;;;;;;;33.70;26.09;99357.13;5069599;28;20016;-76
2023/06/30 11:06:24;;;;;;;6.30;5.68;;;;;;;33.40;26.10;99312.59;5072870;28;20052;-76
2023/06/30 11:09:09;;;;;;;9.43;8.50;;;;;;;33.38;25.94;99288.31;5070977;28;20025;-76
2023/06/30 11:11:51;;;;;;;4.80;4.40;;;;;;;33.73;25.29;99318.94;5071052;28;20020;-76
2023/06/30 11:14:39;;;;;;;3.35;2.20;;;;;;;33.92;24.85;99351.31;5071128;28;20099;-76
2023/06/30 11:17:07;;;;;;;2.17;2.03;;;;;;;33.68;24.26;99327.34;5071042;28;20077;-75
2023/06/30 11:19:36;;;;;;;2.10;1.73;;;;;;;33.45;23.84;99263.16;5073161;28;20079;-76
2023/06/30 11:22:20;;;;;;;3.88;3.55;;;;;;;34.03;24.43;99341.53;5069591;28;20028;-76
2023/06/30 11:24:46;;;;;;;2.10;1.92;;;;;;;34.05;24.25;99328.28;5070349;28;20505;-75
2023/06/30 11:27:11;;;;;;;2.60;2.40;;;;;;;34.18;24.26;99320.09;5072505;28;20077;-76
2023/06/30 11:29:39;;;;;;;3.90;3.17;;;;;;;33.88;24.67;99240.81;5077550;28;20157;-75
2023/06/30 11:32:05;;;;;;;4.53;4.13;;;;;;;34.68;24.46;99320.63;5086730;28;20116;-75
2023/06/30 11:34:31;;;;;;;4.60;3.00;;;;;;;34.37;23.71;99246.41;5073001;28;20108;-76